createdAt,value
2019-03-22T00:00:58.613Z,7.00
2019-03-22T00:03:29.886Z,7.10
2019-03-22T00:06:00.908Z,7.10
2019-03-22T00:08:32.660Z,7.20
2019-03-22T00:11:04.005Z,7.40
2019-03-22T00:13:35.388Z,7.70
2019-03-22T00:16:06.670Z,8.00
2019-03-22T00:18:38.098Z,8.30
2019-03-22T00:21:09.154Z,8.60
2019-03-22T00:23:39.922Z,8.80
2019-03-22T00:26:10.971Z,9.00
2019-03-22T00:28:41.780Z,9.00
2019-03-22T00:31:12.379Z,8.80
2019-03-22T00:33:43.639Z,8.60
2019-03-22T00:36:14.826Z,8.40
2019-03-22T00:38:46.219Z,8.30
2019-03-22T00:41:16.898Z,8.10
2019-03-22T00:43:47.583Z,7.90
2019-03-22T00:46:18.818Z,7.80
2019-03-22T00:48:49.588Z,7.70
2019-03-22T00:51:20.328Z,7.70
2019-03-22T00:53:51.759Z,7.90
2019-03-22T00:56:22.845Z,8.00
2019-03-22T00:58:54.083Z,8.00
2019-03-22T01:01:25.154Z,7.90
2019-03-22T01:03:55.869Z,7.90
2019-03-22T01:06:26.797Z,8.00
2019-03-22T01:08:57.825Z,8.20
2019-03-22T01:11:28.832Z,8.40
2019-03-22T01:13:59.570Z,8.40
2019-03-22T01:16:30.807Z,8.30
2019-03-22T01:19:01.843Z,8.10
2019-03-22T01:21:33.002Z,7.90
2019-03-22T01:24:04.608Z,7.90
2019-03-22T01:26:36.320Z,8.20
2019-03-22T01:29:07.231Z,8.30
2019-03-22T01:31:38.208Z,8.50
2019-03-22T01:34:08.890Z,8.60
2019-03-22T01:36:39.813Z,8.60
2019-03-22T01:39:10.575Z,8.60
2019-03-22T01:41:41.349Z,8.60
2019-03-22T01:44:12.115Z,8.60
2019-03-22T01:46:43.349Z,8.60
2019-03-22T01:49:14.329Z,8.70
2019-03-22T01:51:46.110Z,8.80
2019-03-22T01:54:16.822Z,8.90
2019-03-22T01:56:47.526Z,9.00
2019-03-22T01:59:18.201Z,9.10
2019-03-22T02:01:49.328Z,9.20
2019-03-22T02:04:19.929Z,9.20
2019-03-22T02:06:51.164Z,9.30
2019-03-22T02:09:22.098Z,9.30
2019-03-22T02:11:52.837Z,9.40
2019-03-22T02:14:23.531Z,9.50
2019-03-22T02:16:55.267Z,9.40
2019-03-22T02:19:25.958Z,9.20
2019-03-22T02:21:57.220Z,9.20
2019-03-22T02:24:28.318Z,9.20
2019-03-22T02:26:59.384Z,9.00
2019-03-22T02:29:30.135Z,8.70
2019-03-22T02:32:02.121Z,8.50
2019-03-22T02:34:33.186Z,8.30
2019-03-22T02:37:03.892Z,8.20
2019-03-22T02:39:35.090Z,8.20
2019-03-22T02:42:06.184Z,8.40
2019-03-22T02:44:37.211Z,8.60
2019-03-22T02:47:07.958Z,8.90
2019-03-22T02:49:39.596Z,9.00
2019-03-22T02:52:10.329Z,9.10
2019-03-22T02:54:41.003Z,9.10
2019-03-22T02:57:11.781Z,9.20
2019-03-22T02:59:42.381Z,9.30
2019-03-22T03:02:13.485Z,9.40
2019-03-22T03:04:44.088Z,9.50
2019-03-22T03:07:15.127Z,9.60
2019-03-22T03:09:45.747Z,9.50
2019-03-22T03:12:16.489Z,9.30
2019-03-22T03:14:47.234Z,8.90
2019-03-22T03:17:18.295Z,8.60
2019-03-22T03:19:48.888Z,8.40
2019-03-22T03:22:20.085Z,8.30
2019-03-22T03:24:51.119Z,8.20
2019-03-22T03:27:22.811Z,8.10
2019-03-22T03:29:54.387Z,7.90
2019-03-22T03:32:25.129Z,7.80
2019-03-22T03:34:55.836Z,7.70
2019-03-22T03:37:26.876Z,7.60
2019-03-22T03:39:59.147Z,7.50
2019-03-22T03:42:29.947Z,7.40
2019-03-22T03:45:00.918Z,7.40
2019-03-22T03:47:31.866Z,7.40
2019-03-22T03:50:02.886Z,7.30
2019-03-22T03:52:34.054Z,7.30
2019-03-22T03:55:05.392Z,7.20
2019-03-22T03:57:36.155Z,7.10
2019-03-22T04:00:08.253Z,7.00
2019-03-22T04:02:38.919Z,6.90
2019-03-22T04:05:09.545Z,6.80
2019-03-22T04:07:40.209Z,6.70
2019-03-22T04:10:10.953Z,6.60
2019-03-22T04:12:42.212Z,6.60
2019-03-22T04:15:13.270Z,6.70
2019-03-22T04:17:44.371Z,6.80
2019-03-22T04:20:14.974Z,6.90
2019-03-22T04:22:47.455Z,6.90
2019-03-22T04:25:18.497Z,7.00
2019-03-22T04:27:49.656Z,7.10
2019-03-22T04:30:20.695Z,7.30
2019-03-22T04:32:52.325Z,7.30
2019-03-22T04:35:23.624Z,7.20
2019-03-22T04:37:54.810Z,7.30
2019-03-22T04:40:29.250Z,7.50
2019-03-22T04:43:00.931Z,7.70
2019-03-22T04:45:32.053Z,7.90
2019-03-22T04:48:14.245Z,7.80
2019-03-22T04:50:45.191Z,7.80
2019-03-22T04:53:17.319Z,7.90
2019-03-22T04:55:48.504Z,8.00
2019-03-22T04:58:19.460Z,8.20
2019-03-22T05:00:50.453Z,8.30
2019-03-22T05:40:56.595Z,8.30
2019-03-22T05:43:27.657Z,8.40
2019-03-22T05:45:58.922Z,8.50
2019-03-22T05:48:30.041Z,8.50
2019-03-22T05:51:00.917Z,8.50
2019-03-22T05:53:32.064Z,8.50
2019-03-22T05:56:03.363Z,8.50
2019-03-22T05:58:34.239Z,8.60
2019-03-22T06:01:05.044Z,8.70
2019-03-22T06:03:36.363Z,8.80
2019-03-22T06:06:07.582Z,8.90
2019-03-22T06:08:38.716Z,8.90
2019-03-22T06:11:09.926Z,9.00
2019-03-22T06:13:40.859Z,9.10
2019-03-22T06:16:12.141Z,9.10
2019-03-22T06:18:43.859Z,9.10
2019-03-22T06:21:15.482Z,9.10
2019-03-22T06:23:46.323Z,9.10
2019-03-22T06:26:17.159Z,9.10
2019-03-22T06:28:48.405Z,9.20
2019-03-22T06:31:20.829Z,9.30
2019-03-22T06:33:51.675Z,9.40
2019-03-22T06:36:24.229Z,9.50
2019-03-22T06:38:55.166Z,9.50
2019-03-22T06:41:27.165Z,9.60
2019-03-22T06:43:58.547Z,9.70
2019-03-22T06:46:29.813Z,9.80
2019-03-22T06:49:01.508Z,9.80
2019-03-22T06:51:32.348Z,9.90
2019-03-22T06:54:03.079Z,10.00
2019-03-22T06:56:34.576Z,10.00
2019-03-22T06:59:06.173Z,10.10
2019-03-22T07:01:37.468Z,10.10
2019-03-22T07:04:08.401Z,10.10
2019-03-22T07:06:40.352Z,10.10
2019-03-22T07:09:11.428Z,10.10
2019-03-22T07:11:43.705Z,10.20
2019-03-22T07:14:14.969Z,10.20
2019-03-22T07:16:46.701Z,10.30
2019-03-22T07:19:17.760Z,10.30
2019-03-22T07:21:48.604Z,10.40
2019-03-22T07:24:21.002Z,10.40
2019-03-22T07:26:52.115Z,10.50
2019-03-22T07:29:22.960Z,10.50
2019-03-22T07:31:54.241Z,10.50
2019-03-22T07:34:27.330Z,10.60
2019-03-22T07:36:58.680Z,10.60
2019-03-22T07:39:29.596Z,10.70
2019-03-22T07:42:03.394Z,10.70
2019-03-22T07:44:35.543Z,10.80
2019-03-22T07:47:07.338Z,10.80
2019-03-22T07:49:38.352Z,10.80
2019-03-22T07:52:09.174Z,10.80
2019-03-22T07:54:40.478Z,10.80
2019-03-22T07:57:14.146Z,10.90
2019-03-22T07:59:45.521Z,10.90
2019-03-22T08:02:17.964Z,11.00
2019-03-22T08:04:49.483Z,11.00
2019-03-22T08:07:21.423Z,11.00
2019-03-22T08:09:52.365Z,11.00
2019-03-22T08:12:24.024Z,10.90
2019-03-22T08:14:55.426Z,10.90
2019-03-22T08:17:26.249Z,10.90
2019-03-22T08:19:57.503Z,10.90
2019-03-22T08:22:28.693Z,10.90
2019-03-22T08:24:59.648Z,10.90
2019-03-22T08:27:30.469Z,10.90
2019-03-22T08:30:02.356Z,10.90
2019-03-22T08:32:34.605Z,10.90
2019-03-22T08:35:06.855Z,10.90
2019-03-22T08:37:51.752Z,10.90
2019-03-22T08:40:12.690Z,11.00
2019-03-22T08:42:43.959Z,11.10
2019-03-22T08:45:14.999Z,11.10
2019-03-22T08:47:46.638Z,11.20
2019-03-22T08:50:19.557Z,11.20
2019-03-22T08:52:50.751Z,11.30
2019-03-22T08:55:31.200Z,11.30
2019-03-22T08:58:59.898Z,11.30
2019-03-22T09:01:31.529Z,11.30
2019-03-22T09:04:02.751Z,11.40
2019-03-22T09:06:33.762Z,11.40
2019-03-22T09:09:06.549Z,11.50
2019-03-22T09:11:39.239Z,11.50
2019-03-22T09:14:10.175Z,11.50
2019-03-22T09:16:41.180Z,11.50
2019-03-22T09:19:12.160Z,11.60
2019-03-22T09:21:44.103Z,11.70
2019-03-22T09:24:15.240Z,11.80
2019-03-22T09:26:47.914Z,11.80
2019-03-22T09:29:21.709Z,11.90
2019-03-22T09:31:53.815Z,11.90
2019-03-22T09:34:33.737Z,11.90
2019-03-22T09:36:58.264Z,12.00
2019-03-22T09:39:30.058Z,12.10
2019-03-22T09:42:02.252Z,12.20
2019-03-22T09:44:42.771Z,12.40
2019-03-22T09:47:09.879Z,12.50
2019-03-22T09:49:40.959Z,12.50
2019-03-22T09:52:13.081Z,12.60
2019-03-22T09:54:49.118Z,12.50
2019-03-22T09:57:25.729Z,12.50
2019-03-22T10:00:01.454Z,12.40
2019-03-22T10:02:37.890Z,12.40
2019-03-22T10:05:09.473Z,12.30
2019-03-22T10:07:40.705Z,12.30
2019-03-22T10:10:11.833Z,12.30
2019-03-22T10:12:47.799Z,12.30
2019-03-22T10:15:19.811Z,12.30
2019-03-22T10:17:54.218Z,12.20
2019-03-22T10:20:26.196Z,12.30
2019-03-22T10:22:59.114Z,12.30
2019-03-22T10:25:41.295Z,12.30
2019-03-22T10:28:14.692Z,12.30
2019-03-22T10:30:51.257Z,12.30
2019-03-22T10:33:32.409Z,12.30
2019-03-22T10:36:04.257Z,12.30
2019-03-22T10:38:39.043Z,12.20
2019-03-22T10:41:18.187Z,12.20
2019-03-22T10:43:50.790Z,12.10
2019-03-22T10:46:22.134Z,12.10
2019-03-22T10:48:54.879Z,12.10
2019-03-22T10:51:27.739Z,12.10
2019-03-22T10:53:59.985Z,12.10
2019-03-22T10:56:35.158Z,12.00
2019-03-22T10:59:08.448Z,12.00
2019-03-22T11:01:51.993Z,12.00
2019-03-22T11:04:11.684Z,12.00
2019-03-22T11:06:47.004Z,11.90
2019-03-22T11:09:21.256Z,11.90
2019-03-22T11:12:12.344Z,11.90
2019-03-22T11:15:04.934Z,11.90
2019-03-22T11:17:34.784Z,11.80
2019-03-22T11:20:23.143Z,11.90
2019-03-22T11:22:54.471Z,11.90
2019-03-22T11:25:27.812Z,11.90
2019-03-22T11:27:57.520Z,11.90
2019-03-22T11:30:29.665Z,11.90
2019-03-22T11:33:01.168Z,11.90
2019-03-22T11:35:33.666Z,11.90
2019-03-22T11:38:07.857Z,11.90
2019-03-22T11:40:41.257Z,11.90
2019-03-22T11:43:12.394Z,11.90
2019-03-22T11:45:48.473Z,11.90
2019-03-22T11:48:21.199Z,11.90
2019-03-22T11:50:53.113Z,11.90
2019-03-22T11:53:33.795Z,11.90
2019-03-22T11:56:12.621Z,11.90
2019-03-22T11:58:52.358Z,11.90
2019-03-22T12:01:26.936Z,11.90
2019-03-22T12:04:07.846Z,11.90
2019-03-22T12:06:45.993Z,11.90
2019-03-22T12:09:19.296Z,12.00
2019-03-22T12:11:51.165Z,11.90
2019-03-22T12:14:28.431Z,12.00
2019-03-22T12:17:03.120Z,12.00
2019-03-22T12:19:34.440Z,12.00
2019-03-22T12:22:06.401Z,12.00
2019-03-22T12:24:47.203Z,12.00
2019-03-22T12:27:36.719Z,12.10
2019-03-22T12:30:02.291Z,12.10
2019-03-22T12:32:36.848Z,12.20
2019-03-22T12:35:14.907Z,12.20
2019-03-22T12:37:46.413Z,12.20
2019-03-22T12:40:29.367Z,12.20
2019-03-22T12:43:02.545Z,12.30
2019-03-22T12:45:36.115Z,12.20
2019-03-22T12:48:08.130Z,12.20
2019-03-22T12:50:39.091Z,12.20
2019-03-22T12:53:15.460Z,12.20
2019-03-22T12:55:48.689Z,12.30
2019-03-22T12:58:21.979Z,12.30
2019-03-22T13:00:53.829Z,12.40
2019-03-22T13:03:25.083Z,12.50
2019-03-22T13:05:57.126Z,12.50
2019-03-22T13:08:28.112Z,12.60
2019-03-22T13:10:59.685Z,12.60
2019-03-22T13:13:32.941Z,12.70
2019-03-22T13:16:08.396Z,12.70
2019-03-22T13:18:49.854Z,12.80
2019-03-22T13:21:15.437Z,12.90
2019-03-22T13:23:53.516Z,12.90
2019-03-22T13:26:25.316Z,12.90
2019-03-22T13:28:57.415Z,12.90
2019-03-22T13:31:28.571Z,12.80
2019-03-22T13:34:04.588Z,12.80
2019-03-22T13:36:37.681Z,12.90
2019-03-22T13:39:10.839Z,12.90
2019-03-22T13:41:45.839Z,12.80
2019-03-22T13:44:19.042Z,12.70
2019-03-22T13:46:50.997Z,12.70
2019-03-22T13:49:25.318Z,12.70
2019-03-22T13:51:59.399Z,12.60
2019-03-22T13:54:34.201Z,12.60
2019-03-22T13:57:08.779Z,12.60
2019-03-22T13:59:51.211Z,12.60
2019-03-22T14:02:23.769Z,12.60
2019-03-22T14:05:01.596Z,12.60
2019-03-22T14:07:39.217Z,12.70
2019-03-22T14:10:38.224Z,12.70
2019-03-22T14:16:56.379Z,12.60
2019-03-22T14:19:34.235Z,12.60
2019-03-22T14:22:07.442Z,12.60
2019-03-22T14:24:43.732Z,12.60
2019-03-22T14:27:16.200Z,12.60
2019-03-22T14:29:48.224Z,12.50
2019-03-22T14:32:46.655Z,12.50
2019-03-22T14:35:19.914Z,12.50
2019-03-22T14:38:02.529Z,12.50
2019-03-22T14:40:33.742Z,12.50
2019-03-22T14:43:06.959Z,12.50
2019-03-22T14:45:46.377Z,12.50
2019-03-22T14:48:17.912Z,12.40
2019-03-22T14:50:53.442Z,12.40
2019-03-22T14:53:41.241Z,12.40
2019-03-22T14:56:12.760Z,12.40
2019-03-22T14:58:45.775Z,12.40
2019-03-22T15:01:19.270Z,12.40
2019-03-22T15:03:52.294Z,12.40
2019-03-22T15:06:24.431Z,12.40
2019-03-22T15:09:00.099Z,12.50
2019-03-22T15:12:05.931Z,12.40
2019-03-22T15:16:10.265Z,12.40
2019-03-22T15:21:26.479Z,12.40
2019-03-22T15:34:13.415Z,12.40
2019-03-22T15:37:20.502Z,12.40
2019-03-22T15:40:13.996Z,12.40
2019-03-22T15:42:50.504Z,12.40
2019-03-22T15:45:33.145Z,12.40
2019-03-22T15:48:04.409Z,12.40
2019-03-22T15:50:50.601Z,12.40
2019-03-22T15:53:30.215Z,12.50
2019-03-22T15:57:13.125Z,12.50
2019-03-22T16:28:27.472Z,12.50
2019-03-22T16:30:58.843Z,12.50
2019-03-22T16:33:29.971Z,12.50
2019-03-22T16:36:01.079Z,12.50
2019-03-22T16:38:32.168Z,12.50
2019-03-22T16:41:02.808Z,12.50
2019-03-22T16:43:34.928Z,12.50
2019-03-22T16:46:05.842Z,12.60
2019-03-22T16:48:37.066Z,12.60
2019-03-22T16:51:08.672Z,12.60
2019-03-22T16:53:40.059Z,12.60
2019-03-22T16:56:12.266Z,12.60
2019-03-22T16:58:44.050Z,12.60
2019-03-22T17:01:19.580Z,12.60
2019-03-22T17:03:50.736Z,12.60
2019-03-22T17:15:01.137Z,12.60
2019-03-22T17:27:29.777Z,12.50
2019-03-22T17:30:05.023Z,12.50
2019-03-22T17:36:50.765Z,12.50
2019-03-22T17:42:01.897Z,12.50
2019-03-22T17:48:48.813Z,12.60
2019-03-22T17:54:57.869Z,12.60
2019-03-22T18:01:10.587Z,12.60
2019-03-22T18:03:56.645Z,12.60
2019-03-22T18:06:37.544Z,12.60
2019-03-22T18:09:20.476Z,12.60
2019-03-22T18:12:01.598Z,12.70
2019-03-22T18:14:42.311Z,12.60
2019-03-22T18:17:25.673Z,12.70
2019-03-22T18:20:04.135Z,12.70
2019-03-22T18:22:43.350Z,12.70
2019-03-22T18:25:17.841Z,12.70
2019-03-22T18:27:53.081Z,12.70
2019-03-22T18:30:30.167Z,12.70
2019-03-22T18:33:08.892Z,12.70
2019-03-22T18:35:55.876Z,12.80
2019-03-22T18:38:29.806Z,12.80
2019-03-22T18:41:07.199Z,12.70
2019-03-22T18:43:52.751Z,12.70
2019-03-22T18:46:30.362Z,12.70
2019-03-22T18:49:09.327Z,12.60
2019-03-22T18:52:08.141Z,12.60
2019-03-22T18:54:49.391Z,12.50
2019-03-22T18:57:29.375Z,12.50
2019-03-22T19:03:26.339Z,12.30
2019-03-22T19:06:43.102Z,12.30
2019-03-22T19:09:29.892Z,12.30
2019-03-22T19:12:06.323Z,12.30
2019-03-22T19:14:59.501Z,12.20
2019-03-22T19:17:46.840Z,12.20
2019-03-22T19:20:28.431Z,12.10
2019-03-22T19:23:09.513Z,12.00
2019-03-22T19:25:44.012Z,12.00
2019-03-22T19:28:22.936Z,12.00
2019-03-22T19:30:55.469Z,12.00
2019-03-22T19:33:35.012Z,12.00
2019-03-22T19:36:19.827Z,12.00
2019-03-22T19:39:01.589Z,12.00
2019-03-22T19:41:34.850Z,12.00
2019-03-22T19:47:52.569Z,11.90
2019-03-22T19:51:01.040Z,11.90
2019-03-22T19:53:48.277Z,12.00
2019-03-22T19:57:51.510Z,11.90
2019-03-22T19:59:58.416Z,11.90
2019-03-22T20:03:12.781Z,11.80
2019-03-22T20:09:37.008Z,11.60
2019-03-22T20:12:16.007Z,11.40
2019-03-22T20:15:34.697Z,11.30
2019-03-22T20:18:39.057Z,11.30
2019-03-22T20:25:23.851Z,11.10
2019-03-22T20:31:46.832Z,10.90
2019-03-22T20:32:02.036Z,11.00
2019-03-22T20:34:26.512Z,10.80
2019-03-22T21:19:39.341Z,10.90
2019-03-22T21:25:33.208Z,11.00
2019-03-22T21:28:17.189Z,11.20
2019-03-22T21:31:20.682Z,11.20
2019-03-22T21:34:07.498Z,11.30
2019-03-22T21:36:44.585Z,11.30
2019-03-22T21:39:44.159Z,11.30
2019-03-22T21:42:23.832Z,11.30
2019-03-22T21:45:01.508Z,11.20
2019-03-22T21:47:46.136Z,11.10
2019-03-22T21:50:25.506Z,11.00
2019-03-22T21:53:26.416Z,10.90
2019-03-22T21:56:12.489Z,10.90
2019-03-22T21:58:59.756Z,10.80
2019-03-22T22:02:06.358Z,10.80
2019-03-22T22:05:09.945Z,11.00
2019-03-22T22:07:50.505Z,11.00
2019-03-22T22:16:42.056Z,11.00
2019-03-22T22:35:03.975Z,10.30
2019-03-22T22:38:42.082Z,10.10
2019-03-22T22:46:07.522Z,9.80
2019-03-22T22:51:43.805Z,10.00
2019-03-22T22:52:14.806Z,9.80
2019-03-22T23:02:30.991Z,10.00
2019-03-22T23:05:22.954Z,10.20
2019-03-22T23:08:30.997Z,10.20
2019-03-22T23:11:13.394Z,10.40
2019-03-22T23:14:04.891Z,10.50
2019-03-22T23:17:04.249Z,10.50
2019-03-22T23:19:49.127Z,10.60
2019-03-22T23:22:29.392Z,10.80
2019-03-22T23:25:22.531Z,11.10
2019-03-22T23:36:00.747Z,11.80
2019-03-22T23:39:02.922Z,12.00
2019-03-22T23:42:11.225Z,12.10
2019-03-22T23:44:51.786Z,12.20
2019-03-22T23:47:38.446Z,12.30
2019-03-22T23:50:26.519Z,12.40
2019-03-22T23:53:20.569Z,12.50
2019-03-22T23:59:02.451Z,12.60
